createdAt,value
2023-04-02T00:01:23.747Z,52.29
2023-04-02T00:04:16.567Z,52.36
2023-04-02T00:06:49.367Z,52.27
2023-04-02T00:09:33.853Z,52.20
2023-04-02T00:12:17.822Z,52.18
2023-04-02T00:14:55.498Z,52.17
2023-04-02T00:17:27.894Z,52.20
2023-04-02T00:20:06.636Z,52.23
2023-04-02T00:22:47.119Z,52.17
2023-04-02T00:25:18.765Z,52.29
2023-04-02T00:27:50.012Z,52.26
2023-04-02T00:30:22.049Z,52.20
2023-04-02T00:32:57.355Z,52.25
2023-04-02T00:35:31.124Z,52.26
2023-04-02T00:38:03.540Z,52.17
2023-04-02T00:40:35.128Z,52.00
2023-04-02T00:43:16.788Z,52.05
2023-04-02T00:45:55.321Z,52.05
2023-04-02T00:48:43.859Z,52.14
2023-04-02T00:51:21.158Z,51.94
2023-04-02T00:53:54.720Z,51.86
2023-04-02T00:56:30.891Z,51.97
2023-04-02T00:59:03.622Z,52.00
2023-04-02T01:01:42.971Z,51.92
2023-04-02T01:04:32.823Z,51.86
2023-04-02T01:07:07.665Z,51.93
2023-04-02T01:09:56.454Z,51.98
2023-04-02T01:12:41.235Z,51.92
2023-04-02T01:15:19.467Z,51.99
2023-04-02T01:18:10.130Z,51.82
2023-04-02T01:21:11.889Z,51.84
2023-04-02T01:23:54.466Z,51.82
2023-04-02T01:26:38.275Z,51.67
2023-04-02T01:29:14.174Z,51.66
2023-04-02T01:31:47.904Z,51.70
2023-04-02T01:34:25.076Z,51.79
2023-04-02T01:37:22.401Z,51.66
2023-04-02T01:40:08.125Z,51.55
2023-04-02T01:42:46.238Z,51.55
2023-04-02T01:45:21.944Z,51.53
2023-04-02T01:47:53.928Z,51.54
2023-04-02T01:50:34.008Z,51.47
2023-04-02T01:53:08.323Z,51.30
2023-04-02T01:55:44.321Z,51.32
2023-04-02T01:58:19.892Z,51.36
2023-04-02T02:00:57.658Z,51.31
2023-04-02T02:03:29.850Z,51.46
2023-04-02T02:06:03.494Z,51.53
2023-04-02T02:08:40.011Z,51.50
2023-04-02T02:11:19.555Z,51.60
2023-04-02T02:13:52.334Z,51.57
2023-04-02T02:16:24.454Z,51.61
2023-04-02T02:18:59.228Z,51.55
2023-04-02T02:21:39.980Z,51.54
2023-04-02T02:24:20.661Z,51.53
2023-04-02T02:26:56.987Z,51.55
2023-04-02T02:29:32.205Z,51.55
2023-04-02T02:32:04.639Z,51.71
2023-04-02T02:34:41.970Z,51.82
2023-04-02T02:37:17.825Z,51.66
2023-04-02T02:39:52.894Z,51.54
2023-04-02T02:42:32.668Z,51.74
2023-04-02T02:45:07.934Z,51.65
2023-04-02T02:47:43.541Z,51.51
2023-04-02T02:50:22.133Z,51.57
2023-04-02T02:52:57.179Z,51.64
2023-04-02T02:55:34.559Z,51.54
2023-04-02T02:58:19.558Z,51.61
2023-04-02T03:01:01.703Z,51.67
2023-04-02T03:03:35.968Z,51.55
2023-04-02T03:06:12.272Z,51.53
2023-04-02T03:08:49.212Z,51.53
2023-04-02T03:11:30.814Z,51.46
2023-04-02T03:14:11.791Z,51.35
2023-04-02T03:16:48.040Z,51.34
2023-04-02T03:19:29.909Z,51.29
2023-04-02T03:22:08.292Z,51.24
2023-04-02T03:24:49.340Z,51.06
2023-04-02T03:27:25.464Z,51.10
2023-04-02T03:30:06.940Z,51.09
2023-04-02T03:32:42.845Z,50.91
2023-04-02T03:35:25.022Z,50.83
2023-04-02T03:38:02.083Z,50.85
2023-04-02T03:40:40.243Z,50.84
2023-04-02T03:43:22.140Z,50.74
2023-04-02T03:45:58.838Z,50.91
2023-04-02T03:48:39.665Z,50.86
2023-04-02T03:51:19.337Z,50.83
2023-04-02T03:53:52.232Z,50.71
2023-04-02T03:56:31.624Z,50.52
2023-04-02T03:59:16.230Z,50.62
2023-04-02T04:01:54.947Z,50.83
2023-04-02T04:04:30.651Z,50.86
2023-04-02T04:07:04.182Z,50.79
2023-04-02T04:09:38.563Z,50.73
2023-04-02T04:12:24.092Z,50.67
2023-04-02T04:15:01.663Z,50.76
2023-04-02T04:17:51.744Z,50.65
2023-04-02T04:20:29.350Z,50.61
2023-04-02T04:23:11.957Z,50.62
2023-04-02T04:25:44.442Z,50.64
2023-04-02T04:28:29.606Z,50.56
2023-04-02T04:31:07.353Z,50.48
2023-04-02T04:33:46.570Z,50.38
2023-04-02T04:36:28.938Z,50.27
2023-04-02T04:39:21.732Z,50.33
2023-04-02T04:41:56.224Z,50.40
2023-04-02T04:44:35.269Z,50.34
2023-04-02T04:47:13.533Z,50.34
2023-04-02T04:49:48.974Z,50.34
2023-04-02T04:52:23.548Z,50.34
2023-04-02T04:54:55.621Z,50.37
2023-04-02T04:57:37.819Z,50.34
2023-04-02T05:00:21.064Z,50.24
2023-04-02T05:03:03.593Z,50.17
2023-04-02T05:05:40.978Z,50.37
2023-04-02T05:08:20.736Z,50.50
2023-04-02T05:10:58.499Z,50.49
2023-04-02T05:13:35.527Z,50.21
2023-04-02T05:16:17.628Z,50.25
2023-04-02T05:18:59.312Z,49.97
2023-04-02T05:21:39.259Z,50.42
2023-04-02T05:24:35.400Z,50.53
2023-04-02T05:27:20.323Z,49.40
2023-04-02T05:29:59.238Z,49.35
2023-04-02T05:32:38.088Z,49.23
2023-04-02T05:35:18.621Z,48.88
2023-04-02T05:37:51.426Z,48.64
2023-04-02T05:40:32.504Z,48.42
2023-04-02T05:43:09.087Z,48.11
2023-04-02T05:45:46.607Z,48.00
2023-04-02T05:48:21.871Z,47.59
2023-04-02T05:50:55.927Z,47.39
2023-04-02T05:53:35.737Z,47.10
2023-04-02T05:56:14.331Z,46.79
2023-04-02T05:58:50.796Z,46.33
2023-04-02T06:01:38.327Z,46.13
2023-04-02T06:04:24.040Z,46.00
2023-04-02T06:07:03.119Z,46.16
2023-04-02T06:09:42.832Z,45.84
2023-04-02T06:12:20.593Z,45.32
2023-04-02T06:14:52.615Z,45.30
2023-04-02T06:17:24.888Z,45.14
2023-04-02T06:19:59.297Z,45.11
2023-04-02T06:22:42.019Z,44.95
2023-04-02T06:25:19.574Z,44.80
2023-04-02T06:27:53.141Z,44.58
2023-04-02T06:30:32.404Z,44.66
2023-04-02T06:33:05.042Z,44.49
2023-04-02T06:35:41.649Z,44.15
2023-04-02T06:38:21.801Z,43.88
2023-04-02T06:40:57.587Z,43.55
2023-04-02T06:44:03.300Z,43.27
2023-04-02T06:47:01.038Z,42.89
2023-04-02T06:49:39.831Z,42.33
2023-04-02T06:52:19.570Z,42.14
2023-04-02T06:54:51.465Z,41.45
2023-04-02T06:57:23.146Z,41.42
2023-04-02T06:59:55.908Z,41.42
2023-04-02T07:02:35.051Z,41.61
2023-04-02T07:05:12.406Z,41.39
2023-04-02T07:07:48.986Z,41.53
2023-04-02T07:10:21.867Z,42.17
2023-04-02T07:12:53.523Z,42.01
2023-04-02T07:15:26.952Z,41.27
2023-04-02T07:17:59.521Z,41.51
2023-04-02T07:20:34.253Z,40.99
2023-04-02T07:23:10.580Z,39.47
2023-04-02T07:25:42.081Z,40.67
2023-04-02T07:28:14.357Z,40.44
2023-04-02T07:30:46.558Z,40.28
2023-04-02T07:33:19.763Z,40.35
2023-04-02T07:35:52.423Z,40.20
2023-04-02T07:38:23.843Z,40.18
2023-04-02T07:40:55.308Z,40.30
2023-04-02T07:43:27.031Z,40.00
2023-04-02T07:45:58.774Z,39.57
2023-04-02T07:48:30.418Z,39.83
2023-04-02T07:51:03.331Z,39.73
2023-04-02T07:53:38.072Z,40.13
2023-04-02T07:56:10.126Z,39.43
2023-04-02T07:58:43.502Z,39.27
2023-04-02T08:01:21.086Z,39.01
2023-04-02T08:03:54.402Z,38.96
2023-04-02T08:06:27.730Z,38.44
2023-04-02T08:08:59.061Z,38.73
2023-04-02T08:11:31.810Z,38.29
2023-04-02T08:14:03.903Z,38.18
2023-04-02T08:16:49.295Z,38.06
2023-04-02T08:19:21.181Z,37.92
2023-04-02T08:21:54.029Z,37.98
2023-04-02T08:24:26.097Z,37.59
2023-04-02T08:26:57.956Z,37.76
2023-04-02T08:29:32.460Z,37.85
2023-04-02T08:32:04.236Z,37.73
2023-04-02T08:34:35.775Z,37.51
2023-04-02T08:37:08.037Z,37.44
2023-04-02T08:39:39.905Z,37.32
2023-04-02T08:42:30.856Z,37.43
2023-04-02T08:45:24.947Z,37.28
2023-04-02T08:48:00.169Z,37.19
2023-04-02T08:50:35.627Z,37.29
2023-04-02T08:53:13.877Z,37.32
2023-04-02T08:55:56.010Z,37.09
2023-04-02T08:58:41.601Z,37.00
2023-04-02T09:01:24.965Z,36.92
2023-04-02T09:04:00.835Z,36.96
2023-04-02T09:06:33.697Z,37.14
2023-04-02T09:09:05.237Z,37.27
2023-04-02T09:11:44.294Z,36.85
2023-04-02T09:14:20.915Z,36.64
2023-04-02T09:16:55.547Z,36.62
2023-04-02T09:19:33.822Z,37.01
2023-04-02T09:22:10.491Z,36.42
2023-04-02T09:24:41.754Z,36.11
2023-04-02T09:27:21.939Z,35.52
2023-04-02T09:30:00.991Z,35.54
2023-04-02T09:32:45.841Z,35.46
2023-04-02T09:35:26.058Z,34.81
2023-04-02T09:38:32.028Z,34.78
2023-04-02T09:41:05.345Z,34.65
2023-04-02T09:43:38.350Z,34.50
2023-04-02T09:46:27.074Z,34.10
2023-04-02T09:49:02.178Z,34.00
2023-04-02T09:51:36.696Z,33.74
2023-04-02T09:54:17.180Z,33.75
2023-04-02T09:57:03.633Z,33.33
2023-04-02T09:59:35.462Z,33.22
2023-04-02T10:02:25.490Z,33.27
2023-04-02T10:04:56.670Z,33.04
2023-04-02T10:07:41.495Z,32.48
2023-04-02T10:10:25.256Z,32.31
2023-04-02T10:13:03.890Z,32.54
2023-04-02T10:15:39.741Z,32.05
2023-04-02T10:18:18.269Z,32.04
2023-04-02T10:20:52.470Z,34.53
2023-04-02T10:23:29.873Z,35.66
2023-04-02T10:26:13.644Z,36.08
2023-04-02T10:28:58.146Z,36.46
2023-04-02T10:31:35.847Z,36.97
2023-04-02T10:34:17.980Z,37.11
2023-04-02T10:36:54.463Z,37.10
2023-04-02T10:39:32.525Z,37.23
2023-04-02T10:42:11.932Z,37.51
2023-04-02T10:44:52.252Z,37.75
2023-04-02T10:47:35.800Z,38.05
2023-04-02T10:50:24.653Z,38.43
2023-04-02T10:53:03.774Z,38.57
2023-04-02T10:55:43.478Z,38.68
2023-04-02T10:58:24.593Z,38.48
2023-04-02T11:01:01.003Z,38.50
2023-04-02T11:03:37.102Z,38.61
2023-04-02T11:06:18.933Z,39.01
2023-04-02T11:08:53.561Z,39.16
2023-04-02T11:11:28.459Z,39.07
2023-04-02T11:14:03.498Z,39.54
2023-04-02T11:16:37.630Z,39.71
2023-04-02T11:19:28.608Z,39.39
2023-04-02T11:22:02.104Z,39.27
2023-04-02T11:24:46.632Z,39.59
2023-04-02T11:27:26.300Z,39.86
2023-04-02T11:30:07.641Z,40.20
2023-04-02T11:32:42.691Z,39.81
2023-04-02T11:35:39.248Z,39.66
2023-04-02T11:38:39.532Z,39.50
2023-04-02T11:41:11.186Z,40.01
2023-04-02T11:44:00.872Z,40.23
2023-04-02T11:46:46.659Z,40.66
2023-04-02T11:49:41.359Z,40.93
2023-04-02T11:52:30.861Z,41.18
2023-04-02T11:55:06.113Z,41.54
2023-04-02T11:57:52.227Z,41.29
2023-04-02T12:00:44.234Z,40.78
2023-04-02T12:03:32.602Z,40.74
2023-04-02T12:06:15.439Z,40.81
2023-04-02T12:08:59.197Z,40.55
2023-04-02T12:11:37.270Z,40.31
2023-04-02T12:14:47.563Z,40.00
2023-04-02T12:17:27.550Z,40.39
2023-04-02T12:20:01.646Z,40.55
2023-04-02T12:22:35.871Z,40.85
2023-04-02T12:25:23.313Z,41.45
2023-04-02T12:28:07.885Z,42.35
2023-04-02T12:30:39.920Z,43.03
2023-04-02T12:33:37.554Z,43.19
2023-04-02T12:36:19.758Z,42.26
2023-04-02T12:38:53.857Z,40.93
2023-04-02T12:41:30.288Z,40.72
2023-04-02T12:44:03.559Z,40.54
2023-04-02T12:46:36.843Z,40.22
2023-04-02T12:49:12.685Z,41.41
2023-04-02T12:51:44.573Z,42.73
2023-04-02T12:54:19.940Z,44.41
2023-04-02T12:56:52.203Z,44.18
2023-04-02T12:59:39.395Z,44.04
2023-04-02T13:02:22.458Z,42.97
2023-04-02T13:04:57.299Z,43.29
2023-04-02T13:07:31.129Z,43.28
2023-04-02T13:10:06.053Z,43.11
2023-04-02T13:12:39.703Z,42.80
2023-04-02T13:15:23.521Z,43.19
2023-04-02T13:18:19.147Z,43.46
2023-04-02T13:21:00.188Z,43.63
2023-04-02T13:23:39.125Z,43.69
2023-04-02T13:26:19.729Z,42.90
2023-04-02T13:29:01.723Z,42.95
2023-04-02T13:31:34.364Z,42.27
2023-04-02T13:34:05.847Z,42.85
2023-04-02T13:36:37.592Z,42.53
2023-04-02T13:39:09.346Z,41.31
2023-04-02T13:41:44.483Z,41.30
2023-04-02T13:44:23.578Z,41.35
2023-04-02T13:46:56.833Z,41.45
2023-04-02T13:49:29.539Z,40.94
2023-04-02T13:52:05.138Z,41.29
2023-04-02T13:54:42.746Z,40.80
2023-04-02T13:57:14.565Z,41.00
2023-04-02T13:59:46.052Z,40.56
2023-04-02T14:02:21.628Z,40.17
2023-04-02T14:05:01.135Z,39.99
2023-04-02T14:07:48.476Z,40.54
2023-04-02T14:10:31.920Z,41.92
2023-04-02T14:13:15.436Z,41.98
2023-04-02T14:16:13.032Z,41.46
2023-04-02T14:19:06.892Z,40.94
2023-04-02T14:21:52.476Z,39.92
2023-04-02T14:24:33.329Z,40.66
2023-04-02T14:27:19.964Z,41.87
2023-04-02T14:29:59.073Z,42.34
2023-04-02T14:32:38.088Z,41.33
2023-04-02T14:35:21.365Z,42.94
2023-04-02T14:38:01.456Z,44.08
2023-04-02T14:40:39.538Z,44.57
2023-04-02T14:43:18.350Z,44.87
2023-04-02T14:45:59.599Z,45.96
2023-04-02T14:48:42.959Z,45.66
2023-04-02T14:51:23.319Z,47.11
2023-04-02T14:54:03.203Z,47.84
2023-04-02T14:56:40.145Z,49.27
2023-04-02T14:59:23.060Z,49.10
2023-04-02T15:02:00.230Z,50.04
2023-04-02T15:04:37.414Z,49.34
2023-04-02T15:07:19.570Z,48.87
2023-04-02T15:09:56.518Z,48.97
2023-04-02T15:12:32.334Z,48.03
2023-04-02T15:15:10.571Z,47.76
2023-04-02T15:17:42.119Z,46.67
2023-04-02T15:20:17.652Z,45.75
2023-04-02T15:23:03.494Z,45.79
2023-04-02T15:25:40.628Z,45.59
2023-04-02T15:28:26.421Z,45.28
2023-04-02T15:31:01.656Z,45.41
2023-04-02T15:33:42.692Z,44.73
2023-04-02T15:36:38.439Z,44.95
2023-04-02T15:39:25.780Z,44.20
2023-04-02T15:42:05.811Z,44.21
2023-04-02T15:44:44.646Z,44.18
2023-04-02T15:47:27.600Z,43.86
2023-04-02T15:50:08.472Z,44.10
2023-04-02T15:52:47.463Z,44.12
2023-04-02T15:55:28.157Z,43.73
2023-04-02T15:58:20.926Z,42.92
2023-04-02T16:01:03.667Z,41.74
2023-04-02T16:03:56.426Z,41.90
2023-04-02T16:06:36.310Z,42.73
2023-04-02T16:09:16.802Z,42.21
2023-04-02T16:11:48.363Z,41.01
2023-04-02T16:14:29.030Z,39.93
2023-04-02T16:17:17.637Z,39.46
2023-04-02T16:20:02.075Z,38.02
2023-04-02T16:22:35.755Z,37.65
2023-04-02T16:25:19.457Z,36.90
2023-04-02T16:28:00.963Z,36.15
2023-04-02T16:30:52.404Z,36.24
2023-04-02T16:33:46.974Z,35.06
2023-04-02T16:36:28.854Z,34.90
2023-04-02T16:39:05.512Z,35.51
2023-04-02T16:41:54.994Z,34.87
2023-04-02T16:44:37.174Z,35.10
2023-04-02T16:47:26.694Z,37.99
2023-04-02T16:50:03.698Z,38.28
2023-04-02T16:52:45.541Z,35.52
2023-04-02T16:55:32.775Z,35.09
2023-04-02T16:58:15.881Z,34.65
2023-04-02T17:00:51.834Z,34.29
2023-04-02T17:03:44.573Z,34.07
2023-04-02T17:06:30.942Z,33.93
2023-04-02T17:09:09.719Z,33.81
2023-04-02T17:11:46.618Z,33.69
2023-04-02T17:14:26.447Z,33.80
2023-04-02T17:17:03.667Z,33.52
2023-04-02T17:19:35.893Z,33.50
2023-04-02T17:22:08.349Z,33.46
2023-04-02T17:24:44.256Z,33.33
2023-04-02T17:27:23.509Z,33.03
2023-04-02T17:30:01.521Z,33.37
2023-04-02T17:32:34.425Z,33.71
2023-04-02T17:35:20.065Z,32.74
2023-04-02T17:37:56.636Z,32.71
2023-04-02T17:40:36.292Z,32.78
2023-04-02T17:43:15.103Z,32.98
2023-04-02T17:45:52.924Z,32.87
2023-04-02T17:48:31.731Z,32.85
2023-04-02T17:51:16.501Z,32.47
2023-04-02T17:54:00.123Z,32.87
2023-04-02T17:56:57.988Z,32.41
2023-04-02T17:59:45.970Z,32.44
2023-04-02T18:02:43.675Z,32.03
2023-04-02T18:05:25.297Z,31.81
2023-04-02T18:08:05.002Z,31.56
2023-04-02T18:10:42.101Z,31.96
2023-04-02T18:13:22.410Z,33.02
2023-04-02T18:16:05.651Z,33.96
2023-04-02T18:18:57.100Z,34.77
2023-04-02T18:21:34.172Z,34.99
2023-04-02T18:24:29.795Z,35.50
2023-04-02T18:27:17.858Z,35.87
2023-04-02T18:29:55.754Z,36.15
2023-04-02T18:32:56.663Z,36.39
2023-04-02T18:35:33.176Z,36.34
2023-04-02T18:38:17.088Z,36.36
2023-04-02T18:41:05.927Z,36.59
2023-04-02T18:43:50.503Z,36.66
2023-04-02T18:46:36.288Z,36.61
2023-04-02T18:49:19.667Z,36.91
2023-04-02T18:51:56.241Z,36.73
2023-04-02T18:54:32.274Z,36.67
2023-04-02T18:57:10.707Z,36.61
2023-04-02T18:59:48.186Z,36.97
2023-04-02T19:02:41.882Z,37.06
2023-04-02T19:05:24.115Z,37.43
2023-04-02T19:08:03.797Z,37.73
2023-04-02T19:10:38.772Z,38.05
2023-04-02T19:13:16.461Z,38.06
2023-04-02T19:16:26.457Z,38.06
2023-04-02T19:19:12.846Z,38.02
2023-04-02T19:21:56.530Z,37.90
2023-04-02T19:24:39.921Z,37.57
2023-04-02T19:27:21.295Z,37.50
2023-04-02T19:30:03.249Z,37.02
2023-04-02T19:32:45.541Z,36.82
2023-04-02T19:35:22.806Z,36.52
2023-04-02T19:38:05.972Z,36.25
2023-04-02T19:40:44.832Z,35.87
2023-04-02T19:43:16.028Z,35.61
2023-04-02T19:45:49.809Z,35.63
2023-04-02T19:48:24.112Z,35.55
2023-04-02T19:50:55.816Z,35.49
2023-04-02T19:53:27.068Z,35.35
2023-04-02T19:55:58.839Z,35.31
2023-04-02T19:58:32.447Z,35.09
2023-04-02T20:01:04.791Z,35.16
2023-04-02T20:03:36.714Z,35.03
2023-04-02T20:06:08.326Z,34.88
2023-04-02T20:08:40.504Z,34.81
2023-04-02T20:11:12.040Z,34.86
2023-04-02T20:13:43.386Z,34.70
2023-04-02T20:16:14.713Z,34.55
2023-04-02T20:18:46.343Z,34.55
2023-04-02T20:21:17.956Z,34.52
2023-04-02T20:23:49.405Z,34.36
2023-04-02T20:26:22.847Z,34.28
2023-04-02T20:28:54.231Z,34.50
2023-04-02T20:31:25.766Z,34.53
2023-04-02T20:34:13.073Z,34.39
2023-04-02T20:36:45.653Z,34.41
2023-04-02T20:39:19.535Z,34.29
2023-04-02T20:41:50.825Z,34.20
2023-04-02T20:44:22.592Z,34.23
2023-04-02T20:46:53.899Z,34.18
2023-04-02T20:49:25.891Z,34.12
2023-04-02T20:51:57.496Z,34.08
2023-04-02T20:54:29.190Z,34.08
2023-04-02T20:57:00.793Z,33.98
2023-04-02T20:59:32.151Z,34.13
2023-04-02T21:02:03.836Z,33.97
2023-04-02T21:04:34.861Z,33.85
2023-04-02T21:07:07.282Z,33.90
2023-04-02T21:09:38.785Z,34.08
2023-04-02T21:12:11.732Z,34.02
2023-04-02T21:14:43.003Z,34.11
2023-04-02T21:17:14.506Z,34.00
2023-04-02T21:19:45.716Z,34.15
2023-04-02T21:22:17.358Z,34.15
2023-04-02T21:24:48.999Z,34.11
2023-04-02T21:27:22.502Z,34.04
2023-04-02T21:29:54.090Z,33.91
2023-04-02T21:32:25.423Z,33.97
2023-04-02T21:34:57.250Z,34.05
2023-04-02T21:37:29.035Z,34.20
2023-04-02T21:40:00.809Z,34.05
2023-04-02T21:42:32.109Z,34.03
2023-04-02T21:45:03.997Z,34.09
2023-04-02T21:47:35.249Z,33.95
2023-04-02T21:50:08.238Z,34.16
2023-04-02T21:52:39.578Z,34.01
2023-04-02T21:55:12.923Z,34.06
2023-04-02T21:57:44.340Z,33.91
2023-04-02T22:00:18.228Z,33.78
2023-04-02T22:02:49.906Z,33.93
2023-04-02T22:05:21.778Z,33.88
2023-04-02T22:07:54.467Z,33.94
2023-04-02T22:10:26.396Z,33.85
2023-04-02T22:12:58.146Z,34.10
2023-04-02T22:15:34.571Z,34.06
2023-04-02T22:18:07.903Z,34.06
2023-04-02T22:20:42.695Z,34.08
2023-04-02T22:23:15.184Z,34.16
2023-04-02T22:25:47.872Z,33.99
2023-04-02T22:28:19.851Z,33.85
2023-04-02T22:30:52.102Z,33.95
2023-04-02T22:33:23.676Z,33.98
2023-04-02T22:35:55.463Z,34.11
2023-04-02T22:38:28.120Z,33.78
2023-04-02T22:41:09.136Z,33.96
2023-04-02T22:43:45.865Z,33.98
2023-04-02T22:46:19.501Z,34.12
2023-04-02T22:48:52.078Z,34.14
2023-04-02T22:51:24.941Z,34.12
2023-04-02T22:53:58.113Z,34.12
2023-04-02T22:56:33.277Z,33.96
2023-04-02T22:59:04.890Z,34.00
2023-04-02T23:01:37.906Z,33.94
2023-04-02T23:04:10.726Z,33.96
2023-04-02T23:06:42.515Z,33.99
2023-04-02T23:09:14.849Z,33.89
2023-04-02T23:11:46.188Z,34.00
2023-04-02T23:14:17.628Z,33.59
2023-04-02T23:16:48.975Z,34.16
2023-04-02T23:19:20.838Z,34.09
2023-04-02T23:21:52.801Z,33.61
2023-04-02T23:24:24.427Z,33.56
2023-04-02T23:26:55.916Z,33.90
2023-04-02T23:29:27.861Z,33.82
2023-04-02T23:31:59.533Z,33.55
2023-04-02T23:34:30.664Z,33.73
2023-04-02T23:37:02.136Z,33.52
2023-04-02T23:39:33.789Z,33.51
2023-04-02T23:42:05.269Z,33.40
2023-04-02T23:44:37.415Z,33.52
2023-04-02T23:47:10.041Z,33.39
2023-04-02T23:49:47.562Z,33.27
2023-04-02T23:52:20.653Z,32.93
2023-04-02T23:54:52.047Z,33.25
2023-04-02T23:57:23.568Z,33.05
2023-04-02T23:59:54.951Z,32.93
